Weather at Vasto Flying Field

Public forecast

Using degrees Celsius for public forecast. Weather courtesy of forecast.io.

Closest aviation weather report (METAR) to Vasto Flying Field

Closest report is Abruzzo Airport, 28.4 nm (52.5 km) NW.

2023/10/02 21:50 (retrieved 14 minutes ago)

LIBP 022150Z AUTO 21004KT 9999 NCD 15/13 Q1024

Closest aviation forecast (TAF) to Vasto Flying Field

Closest forecast is Abruzzo Airport, 28.4 nm (52.5 km) NW.

2023/10/02 18:00 (retrieved 4 hours ago)

TAF LIBP 021700Z 0218/0318 VRB05KT CAVOK BECMG 0310/0312 08010KT BECMG 0316/0318 VRB05KT